EBAW METAR and TAF | Updated Today

EBAW METAR

Antwerp International Airport (Deurne)

Observation time: 26 min. ago

EBAW 051920Z 36007KT 330V040 9999 FEW032 06/01 Q1042 NOSIG

Need help? Read our tutorial on how to read METARs or read the parsed version below.

Antwerp International Airport (Deurne) (EBAW) METAR

  • Weather conditions on Sun, 05 Feb 2023 19:20:00 +0000 (26 min. ago):
  • Present conditions: Dry
  • Clouds: A few at 975 meters
  • Visibility: Greater than 10 km
  • Wind: 360 degrees at 7 knots
  • Temperature: 6 celsius
  • Dew point: 1 celsius
  • Pressure: 1042 millibars
  • Remarks: None


Useful to know...

EBAW TAF

Antwerp International Airport (Deurne)

TAF EBAW 051720Z 0518/0603 02008KT 9999 FEW025
Observation time: 2:26 hr. ago
Need help? Read our tutorial on how to read TAFs or read the parsed version below.

Parsed version of TAF for Antwerp International Airport (Deurne) (EBAW)

  • From 05 February at 18:00 UTC, to day 06 of the month at 03:00 UTC
  • Clouds: A few at 762 meters
  • Visibility: Greater than 10 km
  • Wind: 20 degrees at 8